NZOH/OHA METAR and TAF weather

Enter ICAO airport designator
Station Type Date Time Source
NZOH METAR 2019/09/11 20:00 UTC NOAA

NZOH 112000Z 36006KT 30KM FEW050 08/07 Q1014 BECMG 29012KT


Station Type Date Time Source
NZOH Decoded METAR 2019/09/11 20:00 UTC NOAA

Ohakea, New Zealand (NZOH) 40-12S 175-22E 52M
Sep 11, 2019 - 04:00 PM EDT / 2019.09.11 2000 UTC
Wind: from the N (360 degrees) at 7 MPH (6 KT):0
Sky conditions: mostly clear
Temperature: 46 F (8 C)
Dew Point: 44 F (7 C)
Relative Humidity: 93%
Pressure (altimeter): 29.94 in. Hg (1014 hPa)
ob: NZOH 112000Z 36006KT 30KM FEW050 08/07 Q1014 BECMG 29012KT
cycle: 20

Station Type Date Time Source
NZOH TAF 2007/12/14 04:59 UTC NOAA

TAF NZOH 140459Z 140606 11020KT 30KM SCT080 BECMH 0911 03008KT
BECMG 2224 27012KT

Example: see airport list